createdAt,value
2022-10-11T00:01:13.014Z,78.78
2022-10-11T00:04:12.142Z,77.49
2022-10-11T00:07:08.798Z,78.66
2022-10-11T00:10:06.899Z,78.52
2022-10-11T00:13:05.095Z,78.63
2022-10-11T00:16:01.287Z,77.68
2022-10-11T00:18:58.849Z,78.32
2022-10-11T00:21:58.069Z,78.27
2022-10-11T00:24:54.643Z,77.34
2022-10-11T00:27:51.777Z,77.24
2022-10-11T00:30:50.936Z,77.11
2022-10-11T00:33:47.783Z,77.15
2022-10-11T00:36:45.809Z,76.93
2022-10-11T00:39:43.908Z,76.86
2022-10-11T00:42:40.778Z,77.16
2022-10-11T00:45:37.881Z,76.60
2022-10-11T00:48:46.249Z,77.23
2022-10-11T00:51:52.537Z,77.68
2022-10-11T00:54:50.606Z,77.45
2022-10-11T00:57:49.625Z,78.11
2022-10-11T01:00:48.172Z,77.58
2022-10-11T01:03:44.951Z,77.22
2022-10-11T01:06:42.933Z,77.77
2022-10-11T01:09:40.813Z,76.88
2022-10-11T01:12:49.147Z,77.23
2022-10-11T01:15:53.265Z,78.05
2022-10-11T01:19:19.106Z,78.66
2022-10-11T01:22:43.702Z,78.67
2022-10-11T01:26:15.666Z,78.50
2022-10-11T01:29:42.481Z,78.46
2022-10-11T01:33:00.381Z,78.33
2022-10-11T01:36:27.746Z,78.80
2022-10-11T01:39:52.139Z,78.44
2022-10-11T01:42:51.568Z,79.27
2022-10-11T01:45:54.306Z,78.88
2022-10-11T01:48:59.464Z,78.69
2022-10-11T01:52:04.954Z,78.62
2022-10-11T01:55:17.964Z,79.38
2022-10-11T01:58:53.274Z,79.42
2022-10-11T02:02:15.896Z,79.27
2022-10-11T02:05:35.305Z,79.96
2022-10-11T02:08:50.078Z,78.97
2022-10-11T02:11:48.480Z,79.26
2022-10-11T02:14:49.560Z,78.94
2022-10-11T02:17:56.452Z,79.00
2022-10-11T02:20:55.551Z,79.21
2022-10-11T02:24:00.653Z,79.19
2022-10-11T02:27:00.161Z,79.73
2022-10-11T02:30:00.889Z,79.15
2022-10-11T02:33:02.798Z,78.44
2022-10-11T02:36:10.974Z,78.92
2022-10-11T02:39:16.782Z,78.16
2022-10-11T02:42:33.996Z,79.06
2022-10-11T02:45:41.980Z,79.13
2022-10-11T02:48:40.024Z,79.43
2022-10-11T02:51:39.563Z,79.23
2022-10-11T02:54:37.395Z,79.73
2022-10-11T02:57:15.708Z,79.62
2022-10-11T03:00:13.331Z,80.20
2022-10-11T03:03:11.421Z,79.88
2022-10-11T03:06:09.083Z,79.98
2022-10-11T03:09:07.290Z,79.64
2022-10-11T03:12:04.178Z,79.18
2022-10-11T03:15:01.579Z,78.84
2022-10-11T03:17:58.363Z,78.64
2022-10-11T03:20:55.810Z,79.11
2022-10-11T03:23:52.624Z,78.37
2022-10-11T03:26:49.853Z,79.02
2022-10-11T03:29:49.077Z,79.52
2022-10-11T03:32:45.747Z,79.70
2022-10-11T03:35:47.015Z,79.47
2022-10-11T03:38:44.777Z,78.94
2022-10-11T03:41:41.866Z,77.86
2022-10-11T03:44:39.296Z,78.44
2022-10-11T03:47:37.709Z,78.58
2022-10-11T03:50:37.518Z,78.28
2022-10-11T03:53:35.546Z,78.70
2022-10-11T03:56:32.674Z,78.65
2022-10-11T03:59:29.741Z,78.90
2022-10-11T04:02:26.985Z,79.30
2022-10-11T04:05:23.841Z,79.02
2022-10-11T04:08:20.985Z,79.28
2022-10-11T04:11:17.994Z,79.46
2022-10-11T04:14:15.419Z,79.41
2022-10-11T04:17:12.363Z,79.04
2022-10-11T04:20:10.402Z,78.98
2022-10-11T04:23:08.418Z,79.03
2022-10-11T04:26:07.576Z,79.53
2022-10-11T04:29:06.217Z,78.83
2022-10-11T04:32:03.580Z,79.44
2022-10-11T04:35:06.629Z,79.09
2022-10-11T04:38:03.638Z,79.20
2022-10-11T04:41:12.029Z,79.40
2022-10-11T04:44:09.713Z,79.46
2022-10-11T04:47:06.219Z,79.12
2022-10-11T04:50:04.079Z,79.43
2022-10-11T04:53:02.204Z,78.83
2022-10-11T04:56:07.828Z,77.66
2022-10-11T04:59:06.223Z,78.00
2022-10-11T05:02:02.986Z,77.35
2022-10-11T05:05:00.110Z,77.79
2022-10-11T05:07:57.339Z,76.83
2022-10-11T05:10:59.934Z,76.66
2022-10-11T05:13:57.632Z,76.04
2022-10-11T05:16:54.959Z,76.52
2022-10-11T05:19:53.010Z,76.13
2022-10-11T05:22:49.375Z,75.65
2022-10-11T05:25:46.632Z,76.17
2022-10-11T05:28:44.475Z,75.43
2022-10-11T05:31:42.425Z,75.25
2022-10-11T05:34:39.653Z,74.64
2022-10-11T05:37:36.902Z,74.09
2022-10-11T05:40:33.858Z,73.74
2022-10-11T05:43:33.479Z,73.74
2022-10-11T05:46:31.506Z,73.03
2022-10-11T05:49:28.458Z,71.83
2022-10-11T05:52:25.804Z,72.06
2022-10-11T05:55:22.621Z,71.54
2022-10-11T05:58:20.081Z,71.52
2022-10-11T06:01:22.263Z,71.06
2022-10-11T06:04:21.542Z,69.77
2022-10-11T06:07:19.192Z,70.13
2022-10-11T06:10:16.402Z,70.47
2022-10-11T06:13:13.668Z,69.01
2022-10-11T06:16:11.556Z,68.43
2022-10-11T06:19:09.510Z,68.65
2022-10-11T06:22:06.584Z,69.02
2022-10-11T06:25:03.703Z,67.86
2022-10-11T06:28:06.119Z,67.66
2022-10-11T06:31:05.210Z,66.66
2022-10-11T06:34:03.043Z,66.04
2022-10-11T06:37:00.101Z,65.93
2022-10-11T06:39:57.370Z,64.90
2022-10-11T06:42:54.652Z,65.53
2022-10-11T06:45:51.808Z,65.84
2022-10-11T06:48:49.151Z,67.68
2022-10-11T06:51:45.971Z,65.56
2022-10-11T06:54:45.061Z,65.37
2022-10-11T06:57:41.876Z,64.43
2022-10-11T07:00:39.172Z,64.27
2022-10-11T07:03:36.809Z,64.70
2022-10-11T07:06:41.047Z,63.40
2022-10-11T07:09:38.390Z,63.08
2022-10-11T07:12:35.840Z,63.02
2022-10-11T07:15:38.157Z,62.97
2022-10-11T07:18:36.570Z,62.93
2022-10-11T07:21:35.166Z,64.15
2022-10-11T07:24:32.044Z,62.93
2022-10-11T07:27:29.455Z,61.92
2022-10-11T07:30:26.441Z,61.82
2022-10-11T07:33:24.179Z,62.16
2022-10-11T07:36:23.337Z,61.98
2022-10-11T07:39:20.977Z,60.39
2022-10-11T07:42:18.284Z,61.39
2022-10-11T07:45:15.198Z,59.36
2022-10-11T07:48:12.561Z,60.39
2022-10-11T07:51:16.532Z,60.50
2022-10-11T07:54:13.431Z,59.05
2022-10-11T07:57:10.717Z,58.25
2022-10-11T08:00:08.000Z,56.96
2022-10-11T08:03:10.441Z,57.57
2022-10-11T08:06:12.176Z,56.20
2022-10-11T08:09:12.845Z,57.31
2022-10-11T08:12:10.412Z,56.44
2022-10-11T08:15:07.789Z,57.04
2022-10-11T08:18:04.567Z,56.92
2022-10-11T08:21:09.575Z,56.07
2022-10-11T08:24:08.086Z,56.29
2022-10-11T08:27:05.899Z,56.69
2022-10-11T08:30:03.507Z,56.66
2022-10-11T08:33:06.236Z,56.05
2022-10-11T08:36:06.597Z,55.48
2022-10-11T08:39:05.757Z,55.07
2022-10-11T08:42:15.644Z,53.90
2022-10-11T08:45:32.605Z,53.20
2022-10-11T08:48:40.935Z,54.01
2022-10-11T08:51:45.395Z,53.04
2022-10-11T08:54:43.288Z,53.41
2022-10-11T08:57:16.879Z,52.20
2022-10-11T08:59:52.105Z,51.16
2022-10-11T09:03:07.024Z,53.16
2022-10-11T09:05:35.770Z,53.53
2022-10-11T09:08:31.877Z,51.73
2022-10-11T09:11:10.790Z,50.63
2022-10-11T09:14:01.193Z,48.63
2022-10-11T09:16:38.759Z,49.68
2022-10-11T09:19:39.840Z,48.83
2022-10-11T09:22:30.528Z,49.22
2022-10-11T09:25:22.882Z,50.60
2022-10-11T09:28:26.232Z,49.71
2022-10-11T09:30:56.023Z,49.47
2022-10-11T09:33:29.307Z,48.64
2022-10-11T09:35:57.239Z,48.19
2022-10-11T09:38:43.756Z,47.85
2022-10-11T09:41:32.668Z,46.80
2022-10-11T09:43:59.957Z,48.20
2022-10-11T09:46:40.207Z,44.73
2022-10-11T09:49:15.836Z,45.91
2022-10-11T09:51:47.368Z,46.14
2022-10-11T09:54:14.439Z,45.53
2022-10-11T09:56:43.884Z,45.20
2022-10-11T09:59:33.885Z,45.29
2022-10-11T10:02:28.852Z,45.64
2022-10-11T10:05:01.027Z,44.06
2022-10-11T10:07:31.313Z,44.32
2022-10-11T10:09:58.660Z,44.82
2022-10-11T10:12:30.564Z,44.42
2022-10-11T10:15:03.105Z,44.10
2022-10-11T10:17:30.868Z,43.97
2022-10-11T10:20:00.543Z,43.67
2022-10-11T10:22:34.064Z,43.97
2022-10-11T10:25:07.939Z,43.42
2022-10-11T10:27:35.438Z,42.31
2022-10-11T10:30:08.512Z,41.81
2022-10-11T10:32:48.774Z,42.11
2022-10-11T10:35:33.971Z,42.37
2022-10-11T10:38:10.400Z,41.76
2022-10-11T10:40:43.566Z,41.17
2022-10-11T10:43:21.678Z,41.82
2022-10-11T10:46:25.970Z,41.05
2022-10-11T10:52:20.844Z,40.09
2022-10-11T10:54:50.900Z,40.99
2022-10-11T10:57:44.109Z,42.84
2022-10-11T11:00:12.125Z,42.99
2022-10-11T11:02:42.385Z,43.16
2022-10-11T11:05:34.035Z,41.53
2022-10-11T11:08:17.237Z,40.36
2022-10-11T11:10:52.692Z,40.35
2022-10-11T11:13:54.446Z,39.93
2022-10-11T11:16:29.567Z,38.62
2022-10-11T11:19:17.871Z,39.54
2022-10-11T11:21:54.542Z,38.90
2022-10-11T11:24:43.038Z,40.45
2022-10-11T11:27:13.119Z,40.61
2022-10-11T11:29:43.682Z,41.14
2022-10-11T11:32:46.289Z,41.60
2022-10-11T11:35:23.017Z,41.57
2022-10-11T11:37:59.352Z,37.84
2022-10-11T11:40:35.287Z,38.14
2022-10-11T11:43:12.624Z,38.82
2022-10-11T11:45:48.903Z,38.64
2022-10-11T11:48:19.943Z,37.63
2022-10-11T11:50:55.509Z,37.59
2022-10-11T11:53:48.900Z,37.76
2022-10-11T11:56:38.441Z,37.33
2022-10-11T11:59:39.536Z,37.87
2022-10-11T12:02:49.067Z,38.22
2022-10-11T12:05:20.809Z,36.97
2022-10-11T12:07:49.923Z,37.48
2022-10-11T12:10:28.862Z,36.12
2022-10-11T12:13:32.376Z,36.78
2022-10-11T12:15:59.748Z,36.25
2022-10-11T12:18:27.714Z,36.23
2022-10-11T12:21:08.403Z,36.03
2022-10-11T12:23:43.452Z,36.88
2022-10-11T12:26:18.348Z,36.63
2022-10-11T12:29:05.874Z,36.98
2022-10-11T12:31:35.934Z,37.77
2022-10-11T12:34:17.114Z,38.03
2022-10-11T12:36:51.455Z,38.44
2022-10-11T12:39:20.629Z,38.21
2022-10-11T12:41:47.716Z,36.62
2022-10-11T12:44:28.388Z,36.24
2022-10-11T12:46:58.236Z,35.79
2022-10-11T12:49:49.383Z,35.61
2022-10-11T12:52:16.417Z,35.72
2022-10-11T12:55:10.879Z,36.54
2022-10-11T12:57:59.246Z,36.30
2022-10-11T13:00:33.725Z,37.19
2022-10-11T13:03:29.763Z,36.99
2022-10-11T13:06:01.881Z,36.97
2022-10-11T13:08:34.691Z,36.64
2022-10-11T13:11:06.256Z,35.93
2022-10-11T13:13:39.559Z,36.48
2022-10-11T13:16:16.376Z,36.89
2022-10-11T13:18:46.545Z,36.83
2022-10-11T13:21:29.257Z,36.86
2022-10-11T13:23:59.856Z,37.39
2022-10-11T13:26:29.227Z,37.89
2022-10-11T13:28:57.492Z,38.04
2022-10-11T13:31:25.450Z,37.72
2022-10-11T13:33:59.181Z,38.62
2022-10-11T13:36:27.596Z,38.15
2022-10-11T13:38:58.464Z,38.17
2022-10-11T13:41:28.559Z,38.80
2022-10-11T13:43:57.364Z,38.60
2022-10-11T13:46:26.864Z,38.64
2022-10-11T13:49:00.968Z,39.11
2022-10-11T13:51:37.960Z,38.47
2022-10-11T13:54:12.919Z,38.76
2022-10-11T13:56:51.408Z,38.47
2022-10-11T13:59:24.210Z,38.83
2022-10-11T14:02:00.195Z,38.89
2022-10-11T14:04:30.033Z,39.25
2022-10-11T14:07:02.365Z,40.28
2022-10-11T14:09:36.766Z,39.87
2022-10-11T14:12:32.255Z,40.52
2022-10-11T14:15:01.774Z,40.16
2022-10-11T14:17:45.701Z,40.83
2022-10-11T14:20:15.456Z,40.66
2022-10-11T14:22:43.384Z,41.45
2022-10-11T14:25:10.734Z,41.44
2022-10-11T14:27:38.707Z,41.17
2022-10-11T14:30:26.128Z,41.46
2022-10-11T14:32:56.583Z,42.02
2022-10-11T14:35:31.083Z,41.22
2022-10-11T14:37:58.509Z,42.97
2022-10-11T14:40:28.674Z,43.00
2022-10-11T14:42:56.713Z,43.71
2022-10-11T14:45:24.299Z,43.02
2022-10-11T14:47:51.998Z,42.57
2022-10-11T14:50:28.338Z,44.49
2022-10-11T14:52:55.845Z,44.73
2022-10-11T14:55:24.565Z,42.75
2022-10-11T14:57:51.928Z,43.89
2022-10-11T15:00:24.548Z,45.34
2022-10-11T15:02:52.896Z,44.45
2022-10-11T15:05:21.369Z,44.99
2022-10-11T15:07:49.437Z,44.78
2022-10-11T15:10:23.782Z,46.07
2022-10-11T15:12:52.622Z,45.52
2022-10-11T15:15:23.143Z,46.12
2022-10-11T15:17:54.516Z,46.14
2022-10-11T15:20:37.203Z,46.38
2022-10-11T15:23:09.815Z,46.53
2022-10-11T15:25:38.747Z,48.38
2022-10-11T15:28:07.197Z,48.45
2022-10-11T15:30:41.016Z,48.18
2022-10-11T15:33:08.720Z,48.12
2022-10-11T15:35:35.948Z,48.29
2022-10-11T15:38:04.501Z,47.94
2022-10-11T15:40:34.825Z,48.49
2022-10-11T15:43:02.815Z,48.48
2022-10-11T15:45:38.763Z,48.50
2022-10-11T15:48:06.828Z,49.85
2022-10-11T15:50:41.572Z,50.58
2022-10-11T15:53:19.017Z,50.82
2022-10-11T15:56:03.098Z,51.98
2022-10-11T15:58:33.918Z,51.45
2022-10-11T16:01:06.247Z,51.29
2022-10-11T16:06:31.433Z,50.82
2022-10-11T16:08:58.670Z,51.72
2022-10-11T16:11:25.859Z,51.85
2022-10-11T16:13:52.976Z,51.35
2022-10-11T16:16:20.079Z,52.12
2022-10-11T16:18:50.348Z,52.76
2022-10-11T16:21:17.707Z,52.83
2022-10-11T16:23:44.849Z,53.29
2022-10-11T16:26:14.853Z,53.65
2022-10-11T16:28:43.032Z,53.74
2022-10-11T16:31:14.073Z,54.40
2022-10-11T16:33:50.451Z,54.51
2022-10-11T16:36:32.198Z,55.48
2022-10-11T16:39:04.069Z,56.05
2022-10-11T16:41:31.215Z,55.90
2022-10-11T16:43:58.336Z,55.95
2022-10-11T16:46:25.827Z,56.84
2022-10-11T16:48:55.935Z,56.92
2022-10-11T16:51:24.314Z,57.33
2022-10-11T16:53:52.816Z,58.58
2022-10-11T16:56:22.822Z,59.13
2022-10-11T16:58:50.567Z,59.81
2022-10-11T17:01:17.710Z,59.87
2022-10-11T17:03:44.919Z,60.21
2022-10-11T17:06:12.144Z,60.74
2022-10-11T17:08:39.211Z,61.86
2022-10-11T17:11:06.622Z,61.76
2022-10-11T17:13:33.832Z,61.38
2022-10-11T17:16:03.932Z,62.28
2022-10-11T17:18:32.445Z,62.70
2022-10-11T17:21:08.008Z,62.40
2022-10-11T17:23:35.819Z,63.38
2022-10-11T17:26:10.795Z,63.53
2022-10-11T17:28:39.019Z,63.44
2022-10-11T17:31:07.870Z,63.17
2022-10-11T17:33:35.637Z,64.21
2022-10-11T17:36:20.953Z,64.81
2022-10-11T17:38:49.318Z,64.16
2022-10-11T17:41:16.936Z,64.44
2022-10-11T17:43:44.071Z,64.86
2022-10-11T17:46:13.332Z,65.16
2022-10-11T17:48:40.594Z,65.47
2022-10-11T17:51:13.498Z,65.35
2022-10-11T17:53:40.634Z,65.51
2022-10-11T17:56:10.551Z,65.12
2022-10-11T17:58:39.099Z,65.41
2022-10-11T18:01:10.436Z,65.03
2022-10-11T18:03:37.911Z,64.86
2022-10-11T18:06:10.580Z,64.73
2022-10-11T18:08:40.536Z,64.78
2022-10-11T18:11:14.411Z,64.71
2022-10-11T18:13:46.058Z,64.64
2022-10-11T18:16:18.886Z,64.51
2022-10-11T18:18:46.611Z,64.57
2022-10-11T18:21:14.486Z,65.19
2022-10-11T18:23:41.999Z,65.22
2022-10-11T18:26:14.787Z,64.90
2022-10-11T18:28:44.002Z,65.48
2022-10-11T18:31:15.069Z,64.57
2022-10-11T18:33:43.565Z,64.40
2022-10-11T18:36:13.485Z,65.04
2022-10-11T18:38:51.614Z,65.37
2022-10-11T18:41:22.499Z,65.52
2022-10-11T18:43:52.529Z,65.57
2022-10-11T18:46:21.355Z,66.26
2022-10-11T18:48:51.322Z,65.92
2022-10-11T18:51:23.734Z,66.03
2022-10-11T18:53:51.607Z,66.42
2022-10-11T18:56:24.666Z,66.54
2022-10-11T18:58:53.818Z,66.23
2022-10-11T19:01:38.779Z,66.46
2022-10-11T19:04:07.777Z,66.41
2022-10-11T19:06:39.727Z,66.61
2022-10-11T19:09:12.299Z,66.52
2022-10-11T19:11:40.423Z,66.93
2022-10-11T19:14:14.776Z,66.75
2022-10-11T19:16:49.678Z,67.09
2022-10-11T19:19:18.727Z,67.26
2022-10-11T19:21:48.622Z,67.67
2022-10-11T19:24:17.546Z,67.72
2022-10-11T19:26:45.732Z,67.55
2022-10-11T19:29:19.858Z,68.05
2022-10-11T19:31:49.815Z,67.83
2022-10-11T19:34:17.012Z,68.16
2022-10-11T19:36:44.857Z,68.29
2022-10-11T19:39:18.009Z,67.67
2022-10-11T19:41:45.285Z,68.21
2022-10-11T19:44:13.382Z,68.40
2022-10-11T19:46:57.537Z,69.08
2022-10-11T19:49:26.393Z,69.26
2022-10-11T19:51:55.344Z,68.59
2022-10-11T19:54:23.018Z,68.51
2022-10-11T19:56:50.256Z,68.66
2022-10-11T19:59:17.815Z,68.51
2022-10-11T20:01:51.041Z,68.57
2022-10-11T20:04:51.121Z,68.70
2022-10-11T20:07:07.683Z,68.84
2022-10-11T20:09:34.777Z,68.82
2022-10-11T20:12:01.837Z,69.27
2022-10-11T20:14:29.019Z,68.74
2022-10-11T20:16:56.111Z,68.99
2022-10-11T20:19:30.126Z,69.33
2022-10-11T20:21:58.557Z,70.49
2022-10-11T20:24:27.586Z,71.89
2022-10-11T20:26:55.238Z,71.41
2022-10-11T20:29:26.495Z,72.68
2022-10-11T20:31:53.591Z,72.77
2022-10-11T20:34:20.678Z,73.10
2022-10-11T20:36:49.306Z,72.81
2022-10-11T20:39:17.038Z,72.45
2022-10-11T20:41:44.075Z,71.70
2022-10-11T20:44:13.192Z,72.29
2022-10-11T20:46:40.371Z,71.54
2022-10-11T20:49:10.502Z,70.68
2022-10-11T20:51:39.689Z,71.29
2022-10-11T20:54:07.456Z,71.24
2022-10-11T20:56:34.911Z,71.61
2022-10-11T20:59:02.412Z,72.75
2022-10-11T21:01:32.800Z,73.93
2022-10-11T21:04:01.846Z,74.58
2022-10-11T21:06:30.925Z,73.69
2022-10-11T21:08:59.615Z,73.29
2022-10-11T21:11:31.945Z,74.14
2022-10-11T21:14:02.215Z,75.16
2022-10-11T21:16:29.766Z,75.53
2022-10-11T21:18:58.497Z,74.65
2022-10-11T21:21:26.630Z,73.45
2022-10-11T21:23:58.978Z,72.92
2022-10-11T21:26:27.468Z,72.54
2022-10-11T21:28:54.972Z,73.33
2022-10-11T21:31:23.204Z,73.88
2022-10-11T21:33:50.347Z,74.12
2022-10-11T21:36:22.523Z,74.70
2022-10-11T21:38:50.971Z,75.47
2022-10-11T21:41:21.244Z,75.39
2022-10-11T21:43:48.853Z,73.92
2022-10-11T21:46:21.437Z,73.34
2022-10-11T21:48:50.201Z,73.14
2022-10-11T21:51:25.038Z,72.34
2022-10-11T21:53:53.320Z,72.58
2022-10-11T21:56:21.115Z,72.56
2022-10-11T21:58:49.431Z,74.58
2022-10-11T22:01:17.891Z,75.30
2022-10-11T22:03:45.488Z,74.60
2022-10-11T22:06:13.083Z,74.24
2022-10-11T22:08:40.966Z,74.04
2022-10-11T22:11:08.634Z,73.30
2022-10-11T22:13:35.920Z,73.12
2022-10-11T22:16:07.677Z,72.91
2022-10-11T22:18:34.950Z,72.99
2022-10-11T22:21:13.453Z,74.02
2022-10-11T22:23:44.517Z,74.04
2022-10-11T22:26:14.999Z,73.35
2022-10-11T22:28:42.718Z,73.38
2022-10-11T22:31:11.019Z,72.37
2022-10-11T22:33:38.870Z,72.42
2022-10-11T22:36:12.288Z,71.90
2022-10-11T22:38:41.540Z,71.73
2022-10-11T22:41:09.110Z,72.15
2022-10-11T22:43:36.365Z,72.29
2022-10-11T22:46:03.743Z,71.64
2022-10-11T22:48:30.874Z,71.97
2022-10-11T22:50:58.004Z,71.67
2022-10-11T22:53:25.270Z,72.03
2022-10-11T22:55:52.402Z,72.11
2022-10-11T22:58:19.524Z,71.90
2022-10-11T23:00:46.665Z,71.25
2022-10-11T23:03:15.408Z,71.44
2022-10-11T23:05:42.947Z,70.98
2022-10-11T23:08:10.503Z,70.94
2022-10-11T23:10:40.730Z,70.61
2022-10-11T23:13:07.952Z,71.22
2022-10-11T23:15:35.038Z,70.89
2022-10-11T23:18:02.183Z,71.56
2022-10-11T23:20:29.290Z,72.31
2022-10-11T23:22:56.387Z,72.80
2022-10-11T23:25:23.503Z,72.96
2022-10-11T23:27:50.637Z,72.30
2022-10-11T23:30:17.835Z,72.23
2022-10-11T23:32:44.993Z,72.59
2022-10-11T23:35:12.114Z,72.03
2022-10-11T23:37:39.665Z,72.22
2022-10-11T23:40:08.023Z,72.13
2022-10-11T23:42:35.173Z,72.20
2022-10-11T23:45:02.278Z,72.35
2022-10-11T23:47:30.909Z,71.87
2022-10-11T23:49:57.975Z,72.46
2022-10-11T23:52:25.034Z,72.17
2022-10-11T23:54:52.134Z,71.79
2022-10-11T23:57:19.190Z,71.21
2022-10-11T23:59:46.627Z,71.35
